createdAt,value
2018-06-10T00:00:20.988Z,24.90
2018-06-10T00:02:49.940Z,32.20
2018-06-10T00:05:18.262Z,33.23
2018-06-10T00:07:46.627Z,27.07
2018-06-10T00:10:15.008Z,31.10
2018-06-10T00:12:43.316Z,27.00
2018-06-10T00:15:11.636Z,37.43
2018-06-10T00:17:39.994Z,27.30
2018-06-10T00:20:08.324Z,36.03
2018-06-10T00:22:36.624Z,27.17
2018-06-10T00:25:05.304Z,29.80
2018-06-10T00:27:33.660Z,32.90
2018-06-10T00:30:01.994Z,28.37
2018-06-10T00:32:30.377Z,40.87
2018-06-10T00:34:59.573Z,39.00
2018-06-10T00:37:29.304Z,35.53
2018-06-10T00:39:57.628Z,27.70
2018-06-10T00:42:26.480Z,26.07
2018-06-10T00:44:54.989Z,27.83
2018-06-10T00:47:23.320Z,29.20
2018-06-10T00:49:51.671Z,34.30
2018-06-10T00:52:20.000Z,30.33
2018-06-10T00:54:49.331Z,29.40
2018-06-10T00:57:17.631Z,29.03
2018-06-10T00:59:45.963Z,31.03
2018-06-10T01:02:14.332Z,32.87
2018-06-10T01:04:42.639Z,46.23
2018-06-10T01:07:10.935Z,43.10
2018-06-10T01:09:39.841Z,59.47
2018-06-10T01:12:08.199Z,48.50
2018-06-10T01:14:36.491Z,50.27
2018-06-10T01:17:04.840Z,64.37
2018-06-10T01:19:33.148Z,64.13
2018-06-10T01:22:02.203Z,66.97
2018-06-10T01:24:30.493Z,72.83
2018-06-10T01:26:58.808Z,81.20
2018-06-10T01:29:27.107Z,67.43
2018-06-10T01:31:56.305Z,71.77
2018-06-10T01:34:24.596Z,72.63
2018-06-10T01:36:52.920Z,73.60
2018-06-10T01:39:21.263Z,76.00
2018-06-10T01:41:49.609Z,76.13
2018-06-10T01:44:17.903Z,70.87
2018-06-10T01:46:46.219Z,90.47
2018-06-10T01:49:14.516Z,67.00
2018-06-10T01:51:44.076Z,65.90
2018-06-10T01:54:12.387Z,77.70
2018-06-10T01:56:40.712Z,65.47
2018-06-10T01:59:09.009Z,71.00
2018-06-10T02:01:37.319Z,65.10
2018-06-10T02:04:05.655Z,74.10
2018-06-10T02:06:34.923Z,77.50
2018-06-10T02:09:04.083Z,81.00
2018-06-10T02:11:32.399Z,110.00
2018-06-10T02:14:04.523Z,105.37
2018-06-10T02:16:32.836Z,99.00
2018-06-10T02:19:01.164Z,84.73
2018-06-10T02:21:29.483Z,80.57
2018-06-10T02:23:57.811Z,70.00
2018-06-10T02:26:26.114Z,74.13
2018-06-10T02:28:54.463Z,67.67
2018-06-10T02:31:22.816Z,61.57
2018-06-10T02:33:51.120Z,73.00
2018-06-10T02:36:19.428Z,78.23
2018-06-10T02:38:47.738Z,104.40
2018-06-10T02:41:16.055Z,101.43
2018-06-10T02:43:44.369Z,99.80
2018-06-10T02:46:12.683Z,95.93
2018-06-10T02:48:40.987Z,89.20
2018-06-10T02:51:09.300Z,106.43
2018-06-10T02:53:37.609Z,105.40
2018-06-10T02:56:05.980Z,100.60
2018-06-10T02:58:34.281Z,110.53
2018-06-10T03:01:02.604Z,105.23
2018-06-10T03:03:30.996Z,129.90
2018-06-10T03:05:59.315Z,115.93
2018-06-10T03:08:27.668Z,116.90
2018-06-10T03:10:55.984Z,101.43
2018-06-10T03:13:24.285Z,107.47
2018-06-10T03:15:52.601Z,98.97
2018-06-10T03:18:20.888Z,88.63
2018-06-10T03:20:49.207Z,89.53
2018-06-10T03:23:17.537Z,92.03
2018-06-10T03:25:45.872Z,85.80
2018-06-10T03:28:14.177Z,86.50
2018-06-10T03:30:42.530Z,108.63
2018-06-10T03:33:11.519Z,113.00
2018-06-10T03:35:39.820Z,90.30
2018-06-10T03:38:08.392Z,81.77
2018-06-10T03:40:36.704Z,99.20
2018-06-10T03:43:05.016Z,77.80
2018-06-10T03:45:34.354Z,65.77
2018-06-10T03:48:02.668Z,72.63
2018-06-10T03:50:31.039Z,63.90
2018-06-10T03:52:59.360Z,65.23
2018-06-10T03:55:27.683Z,72.13
2018-06-10T03:57:55.992Z,78.10
2018-06-10T04:00:24.967Z,74.43
2018-06-10T04:02:53.326Z,66.47
2018-06-10T04:05:21.631Z,68.13
2018-06-10T04:07:49.980Z,71.57
2018-06-10T04:10:18.356Z,72.27
2018-06-10T04:12:46.691Z,68.63
2018-06-10T04:15:14.991Z,83.73
2018-06-10T04:17:43.327Z,69.23
2018-06-10T04:20:11.636Z,59.23
2018-06-10T04:22:40.034Z,65.47
2018-06-10T04:25:08.279Z,70.57
2018-06-10T04:27:36.843Z,70.57
2018-06-10T04:30:05.867Z,69.00
2018-06-10T04:32:34.196Z,86.33
2018-06-10T04:35:03.344Z,62.40
2018-06-10T04:37:32.155Z,64.07
2018-06-10T04:40:00.468Z,66.30
2018-06-10T04:42:28.795Z,65.57
2018-06-10T04:44:57.135Z,66.47
2018-06-10T04:47:28.236Z,67.30
2018-06-10T04:49:57.541Z,61.50
2018-06-10T04:52:26.156Z,67.73
2018-06-10T04:54:54.629Z,64.60
2018-06-10T04:57:22.944Z,68.77
2018-06-10T04:59:51.244Z,87.50
2018-06-10T05:02:19.556Z,64.20
2018-06-10T05:04:47.863Z,67.83
2018-06-10T05:07:16.704Z,62.90
2018-06-10T05:09:45.407Z,68.00
2018-06-10T05:12:14.504Z,61.53
2018-06-10T05:14:42.804Z,74.57
2018-06-10T05:17:11.584Z,60.00
2018-06-10T05:19:39.963Z,65.90
2018-06-10T05:22:09.070Z,65.03
2018-06-10T05:24:37.440Z,66.93
2018-06-10T05:27:05.757Z,74.87
2018-06-10T05:29:34.093Z,76.67
2018-06-10T05:32:03.391Z,74.73
2018-06-10T05:34:31.732Z,63.10
2018-06-10T05:37:00.049Z,65.03
2018-06-10T05:39:28.356Z,77.30
2018-06-10T05:41:56.664Z,75.33
2018-06-10T05:44:24.987Z,76.60
2018-06-10T05:46:53.722Z,60.53
2018-06-10T05:49:22.081Z,72.67
2018-06-10T05:51:50.413Z,63.87
2018-06-10T05:54:18.837Z,62.73
2018-06-10T05:56:47.212Z,60.43
2018-06-10T05:59:15.515Z,61.20
2018-06-10T06:01:43.852Z,66.03
2018-06-10T06:04:12.159Z,57.43
2018-06-10T06:06:40.533Z,65.00
2018-06-10T06:09:08.871Z,59.17
2018-06-10T06:11:37.164Z,54.20
2018-06-10T06:14:05.536Z,56.70
2018-06-10T06:16:33.837Z,61.93
2018-06-10T06:19:02.152Z,53.80
2018-06-10T06:21:30.447Z,58.27
2018-06-10T06:23:58.760Z,56.30
2018-06-10T06:26:27.064Z,64.73
2018-06-10T06:28:56.080Z,57.03
2018-06-10T06:31:24.411Z,63.40
2018-06-10T06:33:52.724Z,49.37
2018-06-10T06:36:21.039Z,57.60
2018-06-10T06:38:49.339Z,60.90
2018-06-10T06:41:17.669Z,56.43
2018-06-10T06:43:45.967Z,61.00
2018-06-10T06:46:14.273Z,52.40
2018-06-10T06:48:42.580Z,50.50
2018-06-10T06:51:10.924Z,60.37
2018-06-10T06:53:39.230Z,53.80
2018-06-10T06:56:07.623Z,59.33
2018-06-10T06:58:35.937Z,53.00
2018-06-10T07:01:04.263Z,55.53
2018-06-10T07:03:32.559Z,57.80
2018-06-10T07:06:00.947Z,53.70
2018-06-10T07:08:29.340Z,58.73
2018-06-10T07:10:57.691Z,51.20
2018-06-10T07:13:26.044Z,59.57
2018-06-10T07:15:54.398Z,54.93
2018-06-10T07:18:22.716Z,63.83
2018-06-10T07:20:51.103Z,67.57
2018-06-10T07:23:19.432Z,62.37
2018-06-10T07:25:47.816Z,59.77
2018-06-10T07:28:16.131Z,60.83
2018-06-10T07:30:44.447Z,72.43
2018-06-10T07:33:14.257Z,64.57
2018-06-10T07:35:42.576Z,65.63
2018-06-10T07:38:10.942Z,67.00
2018-06-10T07:40:39.463Z,60.37
2018-06-10T07:43:07.727Z,62.77
2018-06-10T07:45:36.095Z,65.83
2018-06-10T07:48:04.636Z,64.93
2018-06-10T07:50:32.948Z,59.20
2018-06-10T07:53:01.267Z,74.30
2018-06-10T07:55:29.571Z,69.43
2018-06-10T07:57:57.902Z,77.07
2018-06-10T08:00:27.033Z,86.33
2018-06-10T08:02:55.644Z,72.60
2018-06-10T08:05:23.992Z,76.13
2018-06-10T08:07:53.177Z,75.20
2018-06-10T08:10:21.516Z,77.00
2018-06-10T08:12:49.828Z,73.90
2018-06-10T08:15:18.144Z,64.17
2018-06-10T08:17:46.443Z,73.50
2018-06-10T08:20:15.601Z,71.03
2018-06-10T08:22:43.926Z,74.73
2018-06-10T08:25:12.228Z,79.57
2018-06-10T08:27:40.536Z,82.73
2018-06-10T08:30:08.860Z,75.80
2018-06-10T08:32:37.164Z,105.40
2018-06-10T08:35:06.617Z,94.70
2018-06-10T08:37:34.927Z,95.63
2018-06-10T08:40:03.256Z,101.23
2018-06-10T08:42:31.556Z,113.67
2018-06-10T08:45:00.413Z,92.73
2018-06-10T08:47:28.724Z,101.70
2018-06-10T08:49:57.077Z,106.73
2018-06-10T08:52:25.388Z,102.67
2018-06-10T08:54:53.840Z,109.33
2018-06-10T08:57:22.446Z,97.13
2018-06-10T08:59:50.772Z,108.63
2018-06-10T09:02:19.084Z,108.10
2018-06-10T09:04:47.419Z,103.03
2018-06-10T09:07:15.764Z,100.53
2018-06-10T09:09:44.060Z,115.80
2018-06-10T09:12:12.370Z,118.50
2018-06-10T09:14:40.683Z,127.60
2018-06-10T09:17:09.012Z,123.03
2018-06-10T09:19:37.380Z,127.03
2018-06-10T09:22:05.725Z,113.40
2018-06-10T09:24:34.020Z,123.23
2018-06-10T09:27:02.340Z,122.37
2018-06-10T09:29:30.715Z,119.80
2018-06-10T09:31:59.036Z,131.03
2018-06-10T09:34:27.348Z,120.57
2018-06-10T09:36:55.676Z,118.90
2018-06-10T09:39:23.976Z,117.27
2018-06-10T09:41:52.286Z,115.80
2018-06-10T09:44:20.620Z,122.20
2018-06-10T09:46:48.921Z,126.53
2018-06-10T09:49:17.243Z,111.10
2018-06-10T09:51:45.657Z,110.20
2018-06-10T09:54:13.976Z,117.87
2018-06-10T09:56:42.284Z,108.50
2018-06-10T09:59:10.601Z,119.23
2018-06-10T10:01:38.911Z,107.73
2018-06-10T10:04:07.236Z,101.53
2018-06-10T10:06:35.544Z,105.37
2018-06-10T10:09:05.612Z,101.33
2018-06-10T10:11:33.933Z,114.00
2018-06-10T10:14:02.252Z,112.87
2018-06-10T10:16:30.575Z,109.90
2018-06-10T10:18:58.900Z,127.03
2018-06-10T10:21:27.292Z,120.43
2018-06-10T10:23:55.620Z,121.40
2018-06-10T10:26:23.940Z,113.37
2018-06-10T10:28:52.255Z,121.20
2018-06-10T10:31:20.560Z,123.83
2018-06-10T10:33:48.920Z,126.93
2018-06-10T10:36:17.246Z,125.50
2018-06-10T10:38:45.553Z,137.40
2018-06-10T10:41:13.880Z,141.87
2018-06-10T10:43:42.184Z,149.13
2018-06-10T10:46:10.504Z,139.50
2018-06-10T10:48:38.880Z,134.37
2018-06-10T10:51:07.197Z,155.77
2018-06-10T10:53:35.526Z,142.43
2018-06-10T10:56:03.865Z,146.63
2018-06-10T10:58:32.167Z,133.27
2018-06-10T11:01:00.534Z,133.70
2018-06-10T11:03:28.863Z,133.00
2018-06-10T11:05:57.192Z,130.27
2018-06-10T11:08:25.577Z,136.47
2018-06-10T11:10:53.876Z,123.40
2018-06-10T11:13:22.228Z,123.47
2018-06-10T11:15:50.556Z,124.83
2018-06-10T11:18:18.856Z,123.87
2018-06-10T11:20:47.158Z,112.27
2018-06-10T11:23:15.472Z,130.10
2018-06-10T11:25:43.777Z,122.57
2018-06-10T11:28:12.096Z,117.53
2018-06-10T11:30:40.456Z,117.57
2018-06-10T11:33:08.764Z,113.07
2018-06-10T11:35:37.076Z,106.97
2018-06-10T11:38:05.394Z,111.13
2018-06-10T11:40:33.690Z,113.90
2018-06-10T11:43:02.319Z,116.67
2018-06-10T11:45:30.623Z,121.13
2018-06-10T11:47:58.951Z,110.10
2018-06-10T11:50:27.270Z,107.23
2018-06-10T11:52:55.583Z,121.40
2018-06-10T11:55:23.904Z,112.10
2018-06-10T11:57:52.235Z,112.83
2018-06-10T12:00:20.535Z,107.93
2018-06-10T12:02:48.868Z,101.27
2018-06-10T12:05:17.191Z,93.23
2018-06-10T12:07:45.495Z,100.57
2018-06-10T12:10:13.803Z,95.57
2018-06-10T12:12:42.141Z,96.73
2018-06-10T12:15:10.460Z,94.53
2018-06-10T12:17:38.752Z,88.70
2018-06-10T12:20:07.113Z,87.60
2018-06-10T12:22:35.463Z,91.30
2018-06-10T12:25:04.149Z,81.33
2018-06-10T12:27:32.643Z,75.80
2018-06-10T12:30:00.944Z,81.30
2018-06-10T12:32:29.987Z,78.40
2018-06-10T12:34:58.285Z,72.53
2018-06-10T12:37:26.632Z,76.73
2018-06-10T12:39:54.928Z,82.20
2018-06-10T12:42:23.239Z,74.33
2018-06-10T12:44:51.539Z,71.07
2018-06-10T12:47:19.884Z,65.00
2018-06-10T12:49:48.235Z,60.43
2018-06-10T12:52:16.548Z,61.50
2018-06-10T12:54:44.844Z,61.77
2018-06-10T12:57:13.818Z,47.70
2018-06-10T12:59:42.080Z,54.73
2018-06-10T13:02:10.740Z,44.03
2018-06-10T13:04:39.032Z,34.37
2018-06-10T13:07:07.390Z,40.27
2018-06-10T13:09:35.691Z,31.00
2018-06-10T13:12:04.022Z,31.97
2018-06-10T13:14:32.316Z,27.30
2018-06-10T13:17:00.645Z,27.77
2018-06-10T13:19:28.952Z,32.37
2018-06-10T13:21:57.276Z,28.00
2018-06-10T13:24:25.572Z,22.67
2018-06-10T13:26:53.871Z,26.57
2018-06-10T13:29:22.177Z,27.70
2018-06-10T13:31:50.530Z,28.33
2018-06-10T13:34:18.829Z,26.47
2018-06-10T13:36:47.129Z,28.37
2018-06-10T13:39:15.440Z,26.03
2018-06-10T13:41:43.740Z,23.83
2018-06-10T13:44:12.216Z,22.80
2018-06-10T13:46:40.876Z,21.73
2018-06-10T13:49:10.012Z,26.73
2018-06-10T13:51:38.439Z,22.13
2018-06-10T13:54:06.781Z,21.13
2018-06-10T13:56:35.080Z,25.87
2018-06-10T13:59:03.426Z,21.47
2018-06-10T14:01:31.748Z,19.17
2018-06-10T14:04:00.062Z,24.53
2018-06-10T14:06:28.379Z,20.70
2018-06-10T14:08:56.729Z,21.33
2018-06-10T14:11:25.028Z,21.20
2018-06-10T14:13:53.402Z,21.90
2018-06-10T14:16:21.767Z,23.50
2018-06-10T14:18:50.107Z,23.17
2018-06-10T14:21:18.504Z,25.63
2018-06-10T14:23:46.816Z,18.47
2018-06-10T14:26:15.118Z,20.87
2018-06-10T14:28:43.422Z,18.13
2018-06-10T14:31:11.752Z,16.63
2018-06-10T14:33:40.091Z,26.07
2018-06-10T14:36:08.400Z,19.37
2018-06-10T14:38:36.728Z,20.93
2018-06-10T14:41:05.067Z,19.50
2018-06-10T14:43:33.371Z,19.23
2018-06-10T14:46:01.700Z,20.20
2018-06-10T14:48:30.030Z,23.87
2018-06-10T14:50:58.356Z,21.27
2018-06-10T14:53:26.668Z,21.40
2018-06-10T14:55:54.984Z,18.40
2018-06-10T14:58:23.316Z,18.17
2018-06-10T15:00:51.628Z,21.97
2018-06-10T15:03:19.943Z,23.03
2018-06-10T15:05:48.274Z,21.73
2018-06-10T15:08:16.589Z,20.53
2018-06-10T15:10:44.941Z,22.63
2018-06-10T15:13:13.261Z,18.43
2018-06-10T15:15:41.572Z,17.57
2018-06-10T15:18:09.873Z,18.00
2018-06-10T15:20:38.204Z,24.10
2018-06-10T15:23:06.507Z,18.03
2018-06-10T15:25:34.824Z,16.90
2018-06-10T15:28:03.400Z,18.70
2018-06-10T15:30:31.708Z,25.00
2018-06-10T15:33:00.009Z,18.87
2018-06-10T15:35:28.359Z,17.67
2018-06-10T15:37:56.688Z,17.83
2018-06-10T15:40:25.019Z,23.50
2018-06-10T15:42:53.340Z,18.33
2018-06-10T15:45:21.636Z,18.40
2018-06-10T15:47:50.808Z,15.67
2018-06-10T15:50:19.178Z,14.17
2018-06-10T15:52:47.476Z,13.67
2018-06-10T15:55:15.772Z,12.33
2018-06-10T15:57:44.096Z,14.60
2018-06-10T16:00:12.433Z,14.83
2018-06-10T16:02:40.794Z,13.97
2018-06-10T16:05:09.096Z,12.80
2018-06-10T16:07:37.400Z,10.37
2018-06-10T16:10:05.768Z,10.93
2018-06-10T16:12:34.076Z,10.00
2018-06-10T16:15:03.350Z,16.53
2018-06-10T16:17:31.656Z,11.53
2018-06-10T16:20:00.628Z,13.33
2018-06-10T16:22:28.933Z,9.93
2018-06-10T16:24:57.220Z,11.47
2018-06-10T16:27:25.580Z,8.67
2018-06-10T16:29:53.917Z,9.50
2018-06-10T16:32:22.208Z,13.90
2018-06-10T16:34:50.500Z,9.53
2018-06-10T16:37:18.864Z,10.10
2018-06-10T16:39:47.199Z,11.50
2018-06-10T16:42:15.905Z,9.70
2018-06-10T16:44:44.227Z,10.10
2018-06-10T16:47:12.540Z,13.67
2018-06-10T16:49:40.859Z,12.63
2018-06-10T16:52:10.506Z,14.53
2018-06-10T16:54:38.868Z,20.20
2018-06-10T16:57:07.216Z,11.13
2018-06-10T16:59:35.533Z,9.97
2018-06-10T17:02:03.868Z,11.27
2018-06-10T17:04:32.189Z,12.33
2018-06-10T17:07:00.497Z,16.23
2018-06-10T17:09:29.216Z,11.80
2018-06-10T17:11:57.561Z,11.53
2018-06-10T17:14:25.816Z,11.53
2018-06-10T17:16:54.112Z,10.83
2018-06-10T17:19:22.451Z,10.27
2018-06-10T17:21:50.820Z,11.30
2018-06-10T17:24:19.127Z,8.57
2018-06-10T17:26:47.436Z,8.97
2018-06-10T17:29:15.739Z,12.30
2018-06-10T17:31:44.060Z,9.93
2018-06-10T17:34:12.376Z,10.83
2018-06-10T17:36:40.692Z,8.67
2018-06-10T17:39:09.011Z,13.80
2018-06-10T17:41:37.360Z,12.33
2018-06-10T17:44:05.708Z,10.73
2018-06-10T17:46:34.016Z,9.20
2018-06-10T17:49:02.652Z,17.43
2018-06-10T17:51:31.128Z,10.40
2018-06-10T17:53:59.463Z,12.63
2018-06-10T17:56:27.797Z,11.43
2018-06-10T17:58:56.120Z,12.17
2018-06-10T18:01:24.453Z,15.10
2018-06-10T18:03:52.760Z,12.73
2018-06-10T18:06:21.178Z,12.93
2018-06-10T18:08:49.673Z,13.80
2018-06-10T18:11:17.989Z,12.07
2018-06-10T18:13:46.288Z,13.50
2018-06-10T18:16:14.904Z,23.83
2018-06-10T18:18:43.298Z,18.50
2018-06-10T18:21:11.630Z,12.43
2018-06-10T18:23:39.974Z,16.60
2018-06-10T18:26:08.361Z,12.13
2018-06-10T18:28:36.719Z,16.83
2018-06-10T18:31:05.229Z,13.73
2018-06-10T18:33:33.580Z,22.70
2018-06-10T18:36:01.892Z,22.60
2018-06-10T18:38:30.212Z,17.00
2018-06-10T18:40:58.592Z,12.60
2018-06-10T18:43:26.864Z,43.03
2018-06-10T18:45:55.192Z,13.40
2018-06-10T18:48:23.586Z,24.10
2018-06-10T18:50:52.479Z,21.43
2018-06-10T18:53:20.796Z,18.90
2018-06-10T18:55:49.567Z,22.63
2018-06-10T18:58:17.889Z,37.53
2018-06-10T19:00:46.210Z,32.03
2018-06-10T19:03:14.520Z,15.80
2018-06-10T19:05:42.812Z,16.27
2018-06-10T19:08:11.125Z,22.13
2018-06-10T19:10:39.438Z,39.17
2018-06-10T19:13:07.768Z,26.90
2018-06-10T19:15:36.118Z,19.67
2018-06-10T19:18:04.467Z,19.20
2018-06-10T19:20:32.841Z,26.93
2018-06-10T19:23:01.159Z,21.63
2018-06-10T19:25:29.481Z,22.47
2018-06-10T19:27:57.793Z,18.17
2018-06-10T19:30:26.234Z,17.97
2018-06-10T19:32:54.564Z,23.07
2018-06-10T19:35:22.880Z,23.00
2018-06-10T19:37:51.395Z,24.20
2018-06-10T19:40:19.862Z,22.87
2018-06-10T19:42:48.371Z,22.37
2018-06-10T19:45:16.686Z,31.23
2018-06-10T19:47:45.009Z,26.60
2018-06-10T19:50:14.325Z,21.93
2018-06-10T19:52:42.633Z,21.80
2018-06-10T19:55:11.536Z,22.53
2018-06-10T19:57:40.032Z,23.53
2018-06-10T20:00:08.798Z,32.83
2018-06-10T20:02:37.096Z,22.97
2018-06-10T20:05:05.953Z,30.20
2018-06-10T20:07:34.268Z,22.97
2018-06-10T20:10:02.580Z,16.37
2018-06-10T20:12:30.900Z,19.87
2018-06-10T20:14:59.231Z,22.27
2018-06-10T20:17:27.552Z,17.50
2018-06-10T20:19:55.881Z,26.97
2018-06-10T20:22:24.200Z,24.33
2018-06-10T20:24:53.804Z,19.67
2018-06-10T20:27:22.103Z,22.13
2018-06-10T20:29:50.441Z,19.07
2018-06-10T20:32:18.742Z,19.47
2018-06-10T20:34:47.040Z,25.90
2018-06-10T20:37:15.343Z,25.43
2018-06-10T20:39:43.644Z,21.20
2018-06-10T20:42:12.428Z,27.40
2018-06-10T20:44:40.683Z,24.57
2018-06-10T20:47:10.073Z,18.90
2018-06-10T20:49:38.828Z,19.43
2018-06-10T20:52:07.152Z,29.57
2018-06-10T20:54:36.083Z,24.83
2018-06-10T20:57:04.592Z,26.07
2018-06-10T20:59:32.908Z,25.47
2018-06-10T21:02:01.248Z,25.13
2018-06-10T21:04:29.748Z,20.67
2018-06-10T21:06:58.072Z,19.93
2018-06-10T21:09:26.390Z,23.20
2018-06-10T21:11:55.588Z,18.60
2018-06-10T21:14:24.040Z,23.00
2018-06-10T21:16:52.964Z,21.20
2018-06-10T21:19:21.879Z,21.33
2018-06-10T21:21:50.255Z,25.90
2018-06-10T21:24:18.931Z,20.00
2018-06-10T21:26:47.264Z,21.30
2018-06-10T21:29:15.588Z,22.37
2018-06-10T21:31:43.901Z,22.87
2018-06-10T21:34:12.213Z,26.43
2018-06-10T21:36:40.583Z,25.90
2018-06-10T21:39:09.444Z,27.23
2018-06-10T21:41:37.976Z,34.60
2018-06-10T21:44:06.458Z,19.73
2018-06-10T21:46:34.781Z,30.00
2018-06-10T21:49:03.096Z,28.30
2018-06-10T21:51:31.412Z,23.73
2018-06-10T21:53:59.764Z,31.13
2018-06-10T21:56:28.099Z,22.93
2018-06-10T21:58:56.920Z,24.40
2018-06-10T22:01:25.240Z,33.00
2018-06-10T22:03:53.544Z,28.30
2018-06-10T22:06:21.853Z,32.60
2018-06-10T22:08:50.157Z,21.67
2018-06-10T22:11:18.480Z,21.87
2018-06-10T22:13:46.811Z,39.43
2018-06-10T22:16:15.133Z,26.77
2018-06-10T22:18:43.441Z,25.60
2018-06-10T22:21:11.757Z,25.37
2018-06-10T22:23:40.055Z,27.73
2018-06-10T22:26:08.368Z,31.53
2018-06-10T22:28:36.677Z,22.43
2018-06-10T22:31:05.004Z,30.90
2018-06-10T22:33:33.316Z,23.57
2018-06-10T22:36:02.284Z,24.67
2018-06-10T22:38:30.592Z,26.63
2018-06-10T22:40:58.899Z,24.20
2018-06-10T22:43:27.229Z,22.40
2018-06-10T22:45:55.545Z,21.07
2018-06-10T22:48:23.860Z,29.37
2018-06-10T22:50:52.169Z,24.07
2018-06-10T22:53:45.933Z,36.03
2018-06-10T22:56:14.235Z,22.57
2018-06-10T22:58:42.528Z,25.87
2018-06-10T23:01:10.905Z,25.53
2018-06-10T23:03:39.161Z,24.43
2018-06-10T23:06:07.489Z,29.33
2018-06-10T23:08:35.813Z,22.33
2018-06-10T23:11:04.120Z,24.40
2018-06-10T23:13:32.429Z,24.07
2018-06-10T23:16:00.757Z,23.30
2018-06-10T23:18:29.055Z,27.83
2018-06-10T23:20:57.404Z,36.13
2018-06-10T23:23:25.706Z,31.83
2018-06-10T23:25:54.013Z,30.37
2018-06-10T23:28:22.329Z,24.43
2018-06-10T23:30:51.569Z,27.17
2018-06-10T23:33:19.876Z,36.07
2018-06-10T23:35:48.169Z,27.57
2018-06-10T23:38:16.491Z,28.53
2018-06-10T23:40:44.868Z,29.83
2018-06-10T23:43:13.183Z,39.70
2018-06-10T23:45:41.476Z,29.63
2018-06-10T23:48:09.787Z,35.40
2018-06-10T23:50:38.107Z,33.70
2018-06-10T23:53:06.428Z,35.13
2018-06-10T23:55:35.449Z,27.73
2018-06-10T23:58:03.788Z,31.93
